This is the latest recevied weather packets stored in our database for station/object AD7ZD. If no packets are shown the sender has not sent any weather packets the latest 1 day(s).
| Time | Temp. | Humidity | Pressure | Rain* | Wind** | Luminosity | Snow |
|---|---|---|---|---|---|---|---|
| 1777986259 | 7.78° C | 93% | 1008.6 hPa | 4.83 mm | 0 m/s | 0 W/m² | - |
| 1777985955 | 7.78° C | 93% | 1008.4 hPa | 6.1 mm | 0.89 m/s, 270° | 0 W/m² | - |
| 1777985653 | 7.78° C | 92% | 1008.6 hPa | 4.32 mm | 0.89 m/s, 24° | 0 W/m² | - |
| 1777985349 | 8.33° C | 92% | 1008.8 hPa | 4.83 mm | 2.24 m/s, 63° | 0 W/m² | - |
| 1777985046 | 8.33° C | 92% | 1008.8 hPa | 3.56 mm | 2.68 m/s, 69° | 0 W/m² | - |
| 1777984742 | 8.33° C | 92% | 1008.8 hPa | 3.05 mm | 3.13 m/s, 61° | 0 W/m² | - |
| 1777984439 | 7.78° C | 92% | 1008.3 hPa | 3.05 mm | 1.34 m/s, 75° | 0 W/m² | - |
| 1777984135 | 8.33° C | 92% | 1008.1 hPa | 1.27 mm | 0.89 m/s, 65° | 0 W/m² | - |
| 1777983832 | 8.33° C | 92% | 1007.9 hPa | 0.51 mm | 0.45 m/s, 82° | 0 W/m² | - |
| 1777983529 | 8.33° C | 92% | 1008 hPa | 0 mm | 0.45 m/s, 180° | 0 W/m² | - |
| 1777983226 | 8.33° C | 92% | 1007.9 hPa | 0 mm | 0.45 m/s, 264° | 0 W/m² | - |
| 1777982922 | 8.33° C | 92% | 1007.8 hPa | 0 mm | 0 m/s | 0 W/m² | - |
| 1777982618 | 8.33° C | 91% | 1007.8 hPa | 0 mm | 0 m/s | 0 W/m² | - |
| 1777982317 | 8.33° C | 91% | 1007.8 hPa | 0 mm | 0.89 m/s, 176° | 0 W/m² | - |
| 1777982014 | 8.33° C | 91% | 1007.9 hPa | 0 mm | 0.89 m/s, 154° | 0 W/m² | - |
| 1777981712 | 8.33° C | 91% | 1008 hPa | 0 mm | 0.45 m/s, 157° | 0 W/m² | - |
| 1777981408 | 8.33° C | 91% | 1008 hPa | 0 mm | 0.89 m/s, 139° | 0 W/m² | - |
| 1777981105 | 8.33° C | 91% | 1008 hPa | 0 mm | 0.45 m/s, 140° | 0 W/m² | - |
| 1777980802 | 8.33° C | 91% | 1007.9 hPa | 0 mm | 0 m/s | 0 W/m² | - |
| 1777980497 | 8.33° C | 91% | 1008 hPa | 0.51 mm | 0.45 m/s, 294° | 0 W/m² | - |
| 1777980195 | 8.33° C | 90% | 1008 hPa | 1.27 mm | 0 m/s | 0 W/m² | - |
| 1777979890 | 8.33° C | 90% | 1008.1 hPa | 2.29 mm | 0 m/s | 0 W/m² | - |
| 1777979586 | 8.33° C | 89% | 1008 hPa | 3.05 mm | 0 m/s | 0 W/m² | - |
| 1777979282 | 8.33° C | 88% | 1008 hPa | 2.29 mm | 0.89 m/s, 286° | 0 W/m² | - |
| 1777978980 | 8.33° C | 87% | 1007.9 hPa | 1.27 mm | 0 m/s | 0 W/m² | - |
* Rain latest hour (hover to see other rain measurements)
** Current wind speed in m/s (hover to see current wind gust speed)